sensor_id;sensor_type;location;lat;lon;timestamp;temperature;humidity
21698;DHT22;11010;49.548;11.926;2023-07-31T00:00:15;16.80;99.90
21698;DHT22;11010;49.548;11.926;2023-07-31T00:02:42;16.80;99.90
21698;DHT22;11010;49.548;11.926;2023-07-31T00:05:10;16.90;99.90
21698;DHT22;11010;49.548;11.926;2023-07-31T00:07:37;16.90;99.90
21698;DHT22;11010;49.548;11.926;2023-07-31T00:10:04;16.80;99.90
21698;DHT22;11010;49.548;11.926;2023-07-31T00:12:31;16.80;99.90
21698;DHT22;11010;49.548;11.926;2023-07-31T00:14:58;16.80;99.90
21698;DHT22;11010;49.548;11.926;2023-07-31T00:17:25;16.80;99.90
21698;DHT22;11010;49.548;11.926;2023-07-31T00:19:52;16.70;99.90
21698;DHT22;11010;49.548;11.926;2023-07-31T00:22:19;16.70;99.90
21698;DHT22;11010;49.548;11.926;2023-07-31T00:24:46;16.70;99.90
21698;DHT22;11010;49.548;11.926;2023-07-31T00:27:13;16.60;99.90
21698;DHT22;11010;49.548;11.926;2023-07-31T00:29:41;16.70;99.90
21698;DHT22;11010;49.548;11.926;2023-07-31T00:32:08;16.60;99.90
21698;DHT22;11010;49.548;11.926;2023-07-31T00:34:37;16.60;99.90
21698;DHT22;11010;49.548;11.926;2023-07-31T00:37:04;16.50;99.90
21698;DHT22;11010;49.548;11.926;2023-07-31T00:39:33;16.60;99.90
21698;DHT22;11010;49.548;11.926;2023-07-31T00:42:00;16.60;99.90
21698;DHT22;11010;49.548;11.926;2023-07-31T00:44:27;16.60;99.90
21698;DHT22;11010;49.548;11.926;2023-07-31T00:46:56;16.60;99.90
21698;DHT22;11010;49.548;11.926;2023-07-31T00:49:23;16.40;99.90
21698;DHT22;11010;49.548;11.926;2023-07-31T00:51:50;16.40;99.90
21698;DHT22;11010;49.548;11.926;2023-07-31T00:54:17;16.50;99.90
21698;DHT22;11010;49.548;11.926;2023-07-31T00:56:45;16.50;99.90
21698;DHT22;11010;49.548;11.926;2023-07-31T00:59:13;16.30;99.90
21698;DHT22;11010;49.548;11.926;2023-07-31T01:01:40;16.30;99.90
21698;DHT22;11010;49.548;11.926;2023-07-31T01:04:07;16.30;99.90
21698;DHT22;11010;49.548;11.926;2023-07-31T01:09:16;16.20;99.90
21698;DHT22;11010;49.548;11.926;2023-07-31T01:11:52;16.10;99.90
21698;DHT22;11010;49.548;11.926;2023-07-31T01:14:20;16.10;99.90
21698;DHT22;11010;49.548;11.926;2023-07-31T01:16:47;16.30;99.90
21698;DHT22;11010;49.548;11.926;2023-07-31T01:19:15;16.10;99.90
21698;DHT22;11010;49.548;11.926;2023-07-31T01:22:20;15.90;99.90
21698;DHT22;11010;49.548;11.926;2023-07-31T01:25:01;15.60;99.90
21698;DHT22;11010;49.548;11.926;2023-07-31T01:27:35;15.70;99.90
21698;DHT22;11010;49.548;11.926;2023-07-31T01:30:21;16.10;99.90
21698;DHT22;11010;49.548;11.926;2023-07-31T01:32:50;16.20;99.90
21698;DHT22;11010;49.548;11.926;2023-07-31T01:35:19;16.20;99.90
21698;DHT22;11010;49.548;11.926;2023-07-31T01:37:46;15.90;99.90
21698;DHT22;11010;49.548;11.926;2023-07-31T01:40:13;16.20;99.90
21698;DHT22;11010;49.548;11.926;2023-07-31T01:42:41;16.20;99.90
21698;DHT22;11010;49.548;11.926;2023-07-31T01:45:09;16.20;99.90
21698;DHT22;11010;49.548;11.926;2023-07-31T01:47:36;16.30;99.90
21698;DHT22;11010;49.548;11.926;2023-07-31T01:50:03;16.30;99.90
21698;DHT22;11010;49.548;11.926;2023-07-31T01:52:30;16.30;99.90
21698;DHT22;11010;49.548;11.926;2023-07-31T01:54:57;16.30;99.90
21698;DHT22;11010;49.548;11.926;2023-07-31T01:57:24;16.30;99.90
21698;DHT22;11010;49.548;11.926;2023-07-31T01:59:51;16.30;99.90
21698;DHT22;11010;49.548;11.926;2023-07-31T02:02:21;16.30;99.90
21698;DHT22;11010;49.548;11.926;2023-07-31T02:04:51;16.10;99.90
21698;DHT22;11010;49.548;11.926;2023-07-31T02:07:18;15.90;99.90
21698;DHT22;11010;49.548;11.926;2023-07-31T02:09:45;15.80;99.90
21698;DHT22;11010;49.548;11.926;2023-07-31T02:12:13;15.70;99.90
21698;DHT22;11010;49.548;11.926;2023-07-31T02:14:41;15.50;99.90
21698;DHT22;11010;49.548;11.926;2023-07-31T02:17:08;15.60;99.90
21698;DHT22;11010;49.548;11.926;2023-07-31T02:19:35;15.60;99.90
21698;DHT22;11010;49.548;11.926;2023-07-31T02:22:02;15.60;99.90
21698;DHT22;11010;49.548;11.926;2023-07-31T02:24:30;15.40;99.90
21698;DHT22;11010;49.548;11.926;2023-07-31T02:26:58;15.50;99.90
21698;DHT22;11010;49.548;11.926;2023-07-31T02:29:25;15.40;99.90
21698;DHT22;11010;49.548;11.926;2023-07-31T02:31:52;15.60;99.90
21698;DHT22;11010;49.548;11.926;2023-07-31T02:34:19;15.60;99.90
21698;DHT22;11010;49.548;11.926;2023-07-31T02:36:46;15.50;99.90
21698;DHT22;11010;49.548;11.926;2023-07-31T02:39:13;15.40;99.90
21698;DHT22;11010;49.548;11.926;2023-07-31T02:41:41;15.50;99.90
21698;DHT22;11010;49.548;11.926;2023-07-31T02:44:08;15.20;99.90
21698;DHT22;11010;49.548;11.926;2023-07-31T02:46:36;15.20;99.90
21698;DHT22;11010;49.548;11.926;2023-07-31T02:49:03;15.20;99.90
21698;DHT22;11010;49.548;11.926;2023-07-31T02:51:31;15.10;99.90
21698;DHT22;11010;49.548;11.926;2023-07-31T02:53:58;15.30;99.90
21698;DHT22;11010;49.548;11.926;2023-07-31T02:56:25;15.30;99.90
21698;DHT22;11010;49.548;11.926;2023-07-31T02:58:52;15.10;99.90
21698;DHT22;11010;49.548;11.926;2023-07-31T03:01:19;15.10;99.90
21698;DHT22;11010;49.548;11.926;2023-07-31T03:03:46;15.00;99.90
21698;DHT22;11010;49.548;11.926;2023-07-31T03:06:13;15.00;99.90
21698;DHT22;11010;49.548;11.926;2023-07-31T03:08:40;14.90;99.90
21698;DHT22;11010;49.548;11.926;2023-07-31T03:11:07;15.20;99.90
21698;DHT22;11010;49.548;11.926;2023-07-31T03:13:34;15.20;99.90
21698;DHT22;11010;49.548;11.926;2023-07-31T03:16:01;15.00;99.90
21698;DHT22;11010;49.548;11.926;2023-07-31T03:18:28;15.00;99.90
21698;DHT22;11010;49.548;11.926;2023-07-31T03:20:55;15.00;99.90
21698;DHT22;11010;49.548;11.926;2023-07-31T03:23:22;14.90;99.90
21698;DHT22;11010;49.548;11.926;2023-07-31T03:26:05;15.00;99.90
21698;DHT22;11010;49.548;11.926;2023-07-31T03:28:32;15.00;99.90
21698;DHT22;11010;49.548;11.926;2023-07-31T03:30:59;15.20;99.90
21698;DHT22;11010;49.548;11.926;2023-07-31T03:33:27;15.00;99.90
21698;DHT22;11010;49.548;11.926;2023-07-31T03:35:54;15.10;99.90
21698;DHT22;11010;49.548;11.926;2023-07-31T03:38:21;15.20;99.90
21698;DHT22;11010;49.548;11.926;2023-07-31T03:40:48;15.10;99.90
21698;DHT22;11010;49.548;11.926;2023-07-31T03:43:15;15.10;99.90
21698;DHT22;11010;49.548;11.926;2023-07-31T03:45:42;15.10;99.90
21698;DHT22;11010;49.548;11.926;2023-07-31T03:48:10;15.20;99.90
21698;DHT22;11010;49.548;11.926;2023-07-31T03:50:38;15.40;99.90
21698;DHT22;11010;49.548;11.926;2023-07-31T03:53:05;15.10;99.90
21698;DHT22;11010;49.548;11.926;2023-07-31T03:55:32;15.10;99.90
21698;DHT22;11010;49.548;11.926;2023-07-31T03:57:59;15.20;99.90
21698;DHT22;11010;49.548;11.926;2023-07-31T04:00:27;15.40;99.90
21698;DHT22;11010;49.548;11.926;2023-07-31T04:02:54;15.30;99.90
21698;DHT22;11010;49.548;11.926;2023-07-31T04:05:21;15.40;99.90
21698;DHT22;11010;49.548;11.926;2023-07-31T04:07:48;15.50;99.90
21698;DHT22;11010;49.548;11.926;2023-07-31T04:10:15;15.40;99.90
21698;DHT22;11010;49.548;11.926;2023-07-31T04:12:42;15.50;99.90
21698;DHT22;11010;49.548;11.926;2023-07-31T04:15:09;15.60;99.90
21698;DHT22;11010;49.548;11.926;2023-07-31T04:17:36;15.50;99.90
21698;DHT22;11010;49.548;11.926;2023-07-31T04:20:04;15.50;99.90
21698;DHT22;11010;49.548;11.926;2023-07-31T04:22:31;15.40;99.90
21698;DHT22;11010;49.548;11.926;2023-07-31T04:24:58;15.60;99.90
21698;DHT22;11010;49.548;11.926;2023-07-31T04:27:25;15.50;99.90
21698;DHT22;11010;49.548;11.926;2023-07-31T04:29:52;15.40;99.90
21698;DHT22;11010;49.548;11.926;2023-07-31T04:32:19;15.50;99.90
21698;DHT22;11010;49.548;11.926;2023-07-31T04:34:47;15.50;99.90
21698;DHT22;11010;49.548;11.926;2023-07-31T04:37:14;15.40;99.90
21698;DHT22;11010;49.548;11.926;2023-07-31T04:39:41;15.20;99.90
21698;DHT22;11010;49.548;11.926;2023-07-31T04:42:08;15.20;99.90
21698;DHT22;11010;49.548;11.926;2023-07-31T04:44:35;15.40;99.90
21698;DHT22;11010;49.548;11.926;2023-07-31T04:47:03;15.20;99.90
21698;DHT22;11010;49.548;11.926;2023-07-31T04:49:31;15.30;99.90
21698;DHT22;11010;49.548;11.926;2023-07-31T04:51:58;15.50;99.90
21698;DHT22;11010;49.548;11.926;2023-07-31T04:54:25;15.50;99.90
21698;DHT22;11010;49.548;11.926;2023-07-31T04:56:53;15.60;99.90
21698;DHT22;11010;49.548;11.926;2023-07-31T04:59:20;15.50;99.90
21698;DHT22;11010;49.548;11.926;2023-07-31T05:01:47;15.40;99.90
21698;DHT22;11010;49.548;11.926;2023-07-31T05:04:15;15.50;99.90
21698;DHT22;11010;49.548;11.926;2023-07-31T05:06:42;15.60;99.90
21698;DHT22;11010;49.548;11.926;2023-07-31T05:09:09;15.60;99.90
21698;DHT22;11010;49.548;11.926;2023-07-31T05:11:36;15.50;99.90
21698;DHT22;11010;49.548;11.926;2023-07-31T05:14:03;15.60;99.90
21698;DHT22;11010;49.548;11.926;2023-07-31T05:16:30;15.50;99.90
21698;DHT22;11010;49.548;11.926;2023-07-31T05:18:57;15.50;99.90
21698;DHT22;11010;49.548;11.926;2023-07-31T05:21:24;15.70;99.90
21698;DHT22;11010;49.548;11.926;2023-07-31T05:23:51;15.60;99.90
21698;DHT22;11010;49.548;11.926;2023-07-31T05:26:18;15.60;99.90
21698;DHT22;11010;49.548;11.926;2023-07-31T05:28:45;15.50;99.90
21698;DHT22;11010;49.548;11.926;2023-07-31T05:31:12;15.60;99.90
21698;DHT22;11010;49.548;11.926;2023-07-31T05:33:39;15.70;99.90
21698;DHT22;11010;49.548;11.926;2023-07-31T05:36:06;15.80;99.90
21698;DHT22;11010;49.548;11.926;2023-07-31T05:38:33;15.70;99.90
21698;DHT22;11010;49.548;11.926;2023-07-31T05:41:00;15.80;99.90
21698;DHT22;11010;49.548;11.926;2023-07-31T05:43:27;15.70;99.90
21698;DHT22;11010;49.548;11.926;2023-07-31T05:45:54;15.80;99.90
21698;DHT22;11010;49.548;11.926;2023-07-31T05:48:21;15.90;99.90
21698;DHT22;11010;49.548;11.926;2023-07-31T05:50:48;16.00;99.90
21698;DHT22;11010;49.548;11.926;2023-07-31T05:53:16;16.00;99.90
21698;DHT22;11010;49.548;11.926;2023-07-31T05:55:43;16.00;99.90
21698;DHT22;11010;49.548;11.926;2023-07-31T05:58:10;16.10;99.90
21698;DHT22;11010;49.548;11.926;2023-07-31T06:00:37;16.20;99.90
21698;DHT22;11010;49.548;11.926;2023-07-31T06:03:04;16.20;99.90
21698;DHT22;11010;49.548;11.926;2023-07-31T06:05:31;16.30;99.90
21698;DHT22;11010;49.548;11.926;2023-07-31T06:07:58;16.40;99.90
21698;DHT22;11010;49.548;11.926;2023-07-31T06:10:25;16.50;99.90
21698;DHT22;11010;49.548;11.926;2023-07-31T06:12:52;16.50;99.90
21698;DHT22;11010;49.548;11.926;2023-07-31T06:15:20;16.50;99.90
21698;DHT22;11010;49.548;11.926;2023-07-31T06:17:47;16.50;99.90
21698;DHT22;11010;49.548;11.926;2023-07-31T06:20:15;16.50;99.90
21698;DHT22;11010;49.548;11.926;2023-07-31T06:22:42;16.60;99.90
21698;DHT22;11010;49.548;11.926;2023-07-31T06:25:09;16.60;99.90
21698;DHT22;11010;49.548;11.926;2023-07-31T06:27:40;16.60;99.90
21698;DHT22;11010;49.548;11.926;2023-07-31T06:30:08;16.70;99.90
21698;DHT22;11010;49.548;11.926;2023-07-31T06:32:35;16.80;99.90
21698;DHT22;11010;49.548;11.926;2023-07-31T06:35:03;16.70;99.90
21698;DHT22;11010;49.548;11.926;2023-07-31T06:37:30;16.70;99.90
21698;DHT22;11010;49.548;11.926;2023-07-31T06:39:57;16.70;99.90
21698;DHT22;11010;49.548;11.926;2023-07-31T06:42:24;16.80;99.90
21698;DHT22;11010;49.548;11.926;2023-07-31T06:44:51;16.90;99.90
21698;DHT22;11010;49.548;11.926;2023-07-31T06:47:18;17.00;99.90
21698;DHT22;11010;49.548;11.926;2023-07-31T06:49:45;17.10;99.90
21698;DHT22;11010;49.548;11.926;2023-07-31T06:52:12;17.20;99.90
21698;DHT22;11010;49.548;11.926;2023-07-31T06:54:39;17.30;99.90
21698;DHT22;11010;49.548;11.926;2023-07-31T06:57:06;17.40;99.90
21698;DHT22;11010;49.548;11.926;2023-07-31T06:59:33;17.50;99.90
21698;DHT22;11010;49.548;11.926;2023-07-31T07:02:00;17.60;99.90
21698;DHT22;11010;49.548;11.926;2023-07-31T07:04:31;17.50;99.90
21698;DHT22;11010;49.548;11.926;2023-07-31T07:06:58;17.60;99.90
21698;DHT22;11010;49.548;11.926;2023-07-31T07:09:25;17.60;99.90
21698;DHT22;11010;49.548;11.926;2023-07-31T07:11:52;17.70;99.90
21698;DHT22;11010;49.548;11.926;2023-07-31T07:14:19;17.70;99.90
21698;DHT22;11010;49.548;11.926;2023-07-31T07:16:51;17.60;99.90
21698;DHT22;11010;49.548;11.926;2023-07-31T07:19:18;17.60;99.90
21698;DHT22;11010;49.548;11.926;2023-07-31T07:21:45;17.80;99.90
21698;DHT22;11010;49.548;11.926;2023-07-31T07:24:12;17.80;99.90
21698;DHT22;11010;49.548;11.926;2023-07-31T07:26:39;17.70;99.90
21698;DHT22;11010;49.548;11.926;2023-07-31T07:29:06;17.70;99.90
21698;DHT22;11010;49.548;11.926;2023-07-31T07:31:34;17.80;99.90
21698;DHT22;11010;49.548;11.926;2023-07-31T07:34:02;17.70;99.90
21698;DHT22;11010;49.548;11.926;2023-07-31T07:36:30;17.70;99.90
21698;DHT22;11010;49.548;11.926;2023-07-31T07:38:59;17.70;99.90
21698;DHT22;11010;49.548;11.926;2023-07-31T07:41:26;17.70;99.90
21698;DHT22;11010;49.548;11.926;2023-07-31T07:43:53;17.70;99.90
21698;DHT22;11010;49.548;11.926;2023-07-31T07:46:20;17.80;99.90
21698;DHT22;11010;49.548;11.926;2023-07-31T07:48:47;17.80;99.90
21698;DHT22;11010;49.548;11.926;2023-07-31T07:51:14;17.80;99.90
21698;DHT22;11010;49.548;11.926;2023-07-31T07:53:41;17.90;99.90
21698;DHT22;11010;49.548;11.926;2023-07-31T07:56:08;17.80;99.90
21698;DHT22;11010;49.548;11.926;2023-07-31T07:58:35;18.00;99.90
21698;DHT22;11010;49.548;11.926;2023-07-31T08:01:02;18.20;99.90
21698;DHT22;11010;49.548;11.926;2023-07-31T08:03:29;18.20;99.90
21698;DHT22;11010;49.548;11.926;2023-07-31T08:06:00;18.00;99.90
21698;DHT22;11010;49.548;11.926;2023-07-31T08:08:28;17.90;99.90
21698;DHT22;11010;49.548;11.926;2023-07-31T08:10:55;18.00;99.90
21698;DHT22;11010;49.548;11.926;2023-07-31T08:13:22;18.00;99.90
21698;DHT22;11010;49.548;11.926;2023-07-31T08:15:49;18.10;99.90
21698;DHT22;11010;49.548;11.926;2023-07-31T08:18:16;18.10;99.90
21698;DHT22;11010;49.548;11.926;2023-07-31T08:20:44;18.20;99.90
21698;DHT22;11010;49.548;11.926;2023-07-31T08:23:11;18.20;99.90
21698;DHT22;11010;49.548;11.926;2023-07-31T08:25:39;18.20;99.90
21698;DHT22;11010;49.548;11.926;2023-07-31T08:28:06;18.40;99.90
21698;DHT22;11010;49.548;11.926;2023-07-31T08:30:33;18.50;99.90
21698;DHT22;11010;49.548;11.926;2023-07-31T08:33:00;18.50;99.90
21698;DHT22;11010;49.548;11.926;2023-07-31T08:35:28;18.60;99.90
21698;DHT22;11010;49.548;11.926;2023-07-31T08:37:55;18.60;99.90
21698;DHT22;11010;49.548;11.926;2023-07-31T08:40:22;18.70;99.90
21698;DHT22;11010;49.548;11.926;2023-07-31T08:42:51;18.60;99.90
21698;DHT22;11010;49.548;11.926;2023-07-31T08:45:19;18.60;99.90
21698;DHT22;11010;49.548;11.926;2023-07-31T08:47:49;18.80;99.90
21698;DHT22;11010;49.548;11.926;2023-07-31T08:50:18;18.80;99.90
21698;DHT22;11010;49.548;11.926;2023-07-31T08:52:50;18.90;99.90
21698;DHT22;11010;49.548;11.926;2023-07-31T08:55:18;18.90;99.90
21698;DHT22;11010;49.548;11.926;2023-07-31T08:57:54;19.00;99.90
21698;DHT22;11010;49.548;11.926;2023-07-31T09:00:22;18.90;99.90
21698;DHT22;11010;49.548;11.926;2023-07-31T09:03:03;19.00;99.90
21698;DHT22;11010;49.548;11.926;2023-07-31T09:05:36;19.10;99.90
21698;DHT22;11010;49.548;11.926;2023-07-31T09:08:07;19.00;99.90
21698;DHT22;11010;49.548;11.926;2023-07-31T09:10:35;19.00;99.90
21698;DHT22;11010;49.548;11.926;2023-07-31T09:13:07;19.00;99.90
21698;DHT22;11010;49.548;11.926;2023-07-31T09:15:40;19.30;99.90
21698;DHT22;11010;49.548;11.926;2023-07-31T09:18:07;19.40;99.90
21698;DHT22;11010;49.548;11.926;2023-07-31T09:20:35;19.60;99.90
21698;DHT22;11010;49.548;11.926;2023-07-31T09:23:11;19.70;99.90
21698;DHT22;11010;49.548;11.926;2023-07-31T09:25:40;19.30;99.90
21698;DHT22;11010;49.548;11.926;2023-07-31T09:28:11;19.30;99.90
21698;DHT22;11010;49.548;11.926;2023-07-31T09:30:51;19.60;99.90
21698;DHT22;11010;49.548;11.926;2023-07-31T09:33:19;19.80;99.90
21698;DHT22;11010;49.548;11.926;2023-07-31T09:35:47;19.80;99.90
21698;DHT22;11010;49.548;11.926;2023-07-31T09:38:15;20.00;99.90
21698;DHT22;11010;49.548;11.926;2023-07-31T09:40:44;19.80;99.90
21698;DHT22;11010;49.548;11.926;2023-07-31T09:43:13;20.20;99.90
21698;DHT22;11010;49.548;11.926;2023-07-31T09:45:42;20.50;99.90
21698;DHT22;11010;49.548;11.926;2023-07-31T09:48:14;20.30;99.90
21698;DHT22;11010;49.548;11.926;2023-07-31T09:50:48;20.10;99.90
21698;DHT22;11010;49.548;11.926;2023-07-31T09:53:18;20.10;99.90
21698;DHT22;11010;49.548;11.926;2023-07-31T09:55:45;20.10;99.90
21698;DHT22;11010;49.548;11.926;2023-07-31T09:58:13;20.10;99.90
21698;DHT22;11010;49.548;11.926;2023-07-31T10:00:40;20.50;99.90
21698;DHT22;11010;49.548;11.926;2023-07-31T10:03:08;20.60;99.90
21698;DHT22;11010;49.548;11.926;2023-07-31T10:05:39;20.70;99.90
21698;DHT22;11010;49.548;11.926;2023-07-31T10:08:09;21.00;99.90
21698;DHT22;11010;49.548;11.926;2023-07-31T10:10:41;21.00;99.90
21698;DHT22;11010;49.548;11.926;2023-07-31T10:13:09;21.30;99.90
21698;DHT22;11010;49.548;11.926;2023-07-31T10:15:37;20.70;99.90
21698;DHT22;11010;49.548;11.926;2023-07-31T10:18:06;21.10;99.90
21698;DHT22;11010;49.548;11.926;2023-07-31T10:20:34;21.00;99.90
21698;DHT22;11010;49.548;11.926;2023-07-31T10:23:01;21.40;99.90
21698;DHT22;11010;49.548;11.926;2023-07-31T10:25:29;21.20;99.90
21698;DHT22;11010;49.548;11.926;2023-07-31T10:27:57;21.10;99.90
21698;DHT22;11010;49.548;11.926;2023-07-31T10:30:27;21.40;99.90
21698;DHT22;11010;49.548;11.926;2023-07-31T10:32:54;21.10;99.90
21698;DHT22;11010;49.548;11.926;2023-07-31T10:35:22;21.00;99.90
21698;DHT22;11010;49.548;11.926;2023-07-31T10:37:50;21.20;99.90
21698;DHT22;11010;49.548;11.926;2023-07-31T10:40:25;21.30;99.90
21698;DHT22;11010;49.548;11.926;2023-07-31T10:42:56;21.20;99.90
21698;DHT22;11010;49.548;11.926;2023-07-31T10:48:16;21.10;99.90
21698;DHT22;11010;49.548;11.926;2023-07-31T10:50:51;21.20;99.90
21698;DHT22;11010;49.548;11.926;2023-07-31T10:53:26;21.60;99.90
21698;DHT22;11010;49.548;11.926;2023-07-31T10:55:58;22.00;99.90
21698;DHT22;11010;49.548;11.926;2023-07-31T10:58:25;21.90;99.90
21698;DHT22;11010;49.548;11.926;2023-07-31T11:00:56;21.70;99.90
21698;DHT22;11010;49.548;11.926;2023-07-31T11:06:09;21.80;99.90
21698;DHT22;11010;49.548;11.926;2023-07-31T11:08:42;21.40;99.90
21698;DHT22;11010;49.548;11.926;2023-07-31T11:11:11;21.10;99.90
21698;DHT22;11010;49.548;11.926;2023-07-31T11:16:12;21.80;99.90
21698;DHT22;11010;49.548;11.926;2023-07-31T11:18:41;21.30;99.90
21698;DHT22;11010;49.548;11.926;2023-07-31T11:21:13;21.30;99.90
21698;DHT22;11010;49.548;11.926;2023-07-31T11:23:40;21.10;99.90
21698;DHT22;11010;49.548;11.926;2023-07-31T11:26:07;21.10;99.90
21698;DHT22;11010;49.548;11.926;2023-07-31T11:28:35;21.00;99.90
21698;DHT22;11010;49.548;11.926;2023-07-31T11:31:02;20.90;99.90
21698;DHT22;11010;49.548;11.926;2023-07-31T11:33:30;20.90;99.90
21698;DHT22;11010;49.548;11.926;2023-07-31T11:35:57;20.90;99.90
21698;DHT22;11010;49.548;11.926;2023-07-31T11:38:26;21.20;99.90
21698;DHT22;11010;49.548;11.926;2023-07-31T11:40:54;21.80;99.90
21698;DHT22;11010;49.548;11.926;2023-07-31T11:43:22;22.40;99.90
21698;DHT22;11010;49.548;11.926;2023-07-31T11:45:50;22.10;99.90
21698;DHT22;11010;49.548;11.926;2023-07-31T11:48:29;21.80;99.90
21698;DHT22;11010;49.548;11.926;2023-07-31T11:51:04;21.80;99.90
21698;DHT22;11010;49.548;11.926;2023-07-31T11:53:50;21.40;99.90
21698;DHT22;11010;49.548;11.926;2023-07-31T11:56:19;21.30;99.90
21698;DHT22;11010;49.548;11.926;2023-07-31T11:58:49;21.30;99.90
21698;DHT22;11010;49.548;11.926;2023-07-31T12:01:18;21.30;99.90
21698;DHT22;11010;49.548;11.926;2023-07-31T12:03:46;21.50;99.90
21698;DHT22;11010;49.548;11.926;2023-07-31T12:06:13;22.10;99.90
21698;DHT22;11010;49.548;11.926;2023-07-31T12:08:40;22.20;99.90
21698;DHT22;11010;49.548;11.926;2023-07-31T12:11:09;21.90;99.90
21698;DHT22;11010;49.548;11.926;2023-07-31T12:13:36;21.70;99.90
21698;DHT22;11010;49.548;11.926;2023-07-31T12:16:04;22.10;99.90
21698;DHT22;11010;49.548;11.926;2023-07-31T12:18:37;22.10;99.90
21698;DHT22;11010;49.548;11.926;2023-07-31T12:21:08;22.00;99.90
21698;DHT22;11010;49.548;11.926;2023-07-31T12:23:38;21.90;99.90
21698;DHT22;11010;49.548;11.926;2023-07-31T12:26:09;22.30;99.90
21698;DHT22;11010;49.548;11.926;2023-07-31T12:28:48;22.10;99.90
21698;DHT22;11010;49.548;11.926;2023-07-31T12:31:20;21.90;99.90
21698;DHT22;11010;49.548;11.926;2023-07-31T12:33:49;21.90;99.90
21698;DHT22;11010;49.548;11.926;2023-07-31T12:36:19;21.80;99.90
21698;DHT22;11010;49.548;11.926;2023-07-31T12:38:47;21.60;99.90
21698;DHT22;11010;49.548;11.926;2023-07-31T12:41:16;21.40;99.90
21698;DHT22;11010;49.548;11.926;2023-07-31T12:43:44;21.40;99.90
21698;DHT22;11010;49.548;11.926;2023-07-31T12:46:12;21.50;99.90
21698;DHT22;11010;49.548;11.926;2023-07-31T12:48:41;21.60;99.90
21698;DHT22;11010;49.548;11.926;2023-07-31T12:51:08;22.00;99.90
21698;DHT22;11010;49.548;11.926;2023-07-31T12:53:35;21.90;99.90
21698;DHT22;11010;49.548;11.926;2023-07-31T12:56:03;22.00;99.90
21698;DHT22;11010;49.548;11.926;2023-07-31T12:58:30;21.90;99.90
21698;DHT22;11010;49.548;11.926;2023-07-31T13:00:57;21.90;99.90
21698;DHT22;11010;49.548;11.926;2023-07-31T13:03:25;22.00;99.90
21698;DHT22;11010;49.548;11.926;2023-07-31T13:05:52;22.10;99.90
21698;DHT22;11010;49.548;11.926;2023-07-31T13:08:20;21.90;99.90
21698;DHT22;11010;49.548;11.926;2023-07-31T13:10:47;22.40;99.90
21698;DHT22;11010;49.548;11.926;2023-07-31T13:13:14;22.60;99.90
21698;DHT22;11010;49.548;11.926;2023-07-31T13:15:41;22.30;99.90
21698;DHT22;11010;49.548;11.926;2023-07-31T13:18:09;22.20;99.90
21698;DHT22;11010;49.548;11.926;2023-07-31T13:20:36;22.00;99.90
21698;DHT22;11010;49.548;11.926;2023-07-31T13:23:03;21.80;99.90
21698;DHT22;11010;49.548;11.926;2023-07-31T13:25:30;22.00;99.90
21698;DHT22;11010;49.548;11.926;2023-07-31T13:27:57;22.00;99.90
21698;DHT22;11010;49.548;11.926;2023-07-31T13:30:27;21.90;99.90
21698;DHT22;11010;49.548;11.926;2023-07-31T13:32:54;21.80;99.90
21698;DHT22;11010;49.548;11.926;2023-07-31T13:35:21;22.00;99.90
21698;DHT22;11010;49.548;11.926;2023-07-31T13:37:48;22.10;99.90
21698;DHT22;11010;49.548;11.926;2023-07-31T13:40:15;22.20;99.90
21698;DHT22;11010;49.548;11.926;2023-07-31T13:42:42;22.20;99.90
21698;DHT22;11010;49.548;11.926;2023-07-31T13:45:09;22.30;99.90
21698;DHT22;11010;49.548;11.926;2023-07-31T13:47:37;22.20;99.90
21698;DHT22;11010;49.548;11.926;2023-07-31T13:50:04;21.90;99.90
21698;DHT22;11010;49.548;11.926;2023-07-31T13:52:31;22.00;99.90
21698;DHT22;11010;49.548;11.926;2023-07-31T13:54:58;22.20;99.90
21698;DHT22;11010;49.548;11.926;2023-07-31T13:57:25;22.20;99.90
21698;DHT22;11010;49.548;11.926;2023-07-31T13:59:52;22.00;99.90
21698;DHT22;11010;49.548;11.926;2023-07-31T14:02:19;22.20;99.90
21698;DHT22;11010;49.548;11.926;2023-07-31T14:04:46;22.40;99.90
21698;DHT22;11010;49.548;11.926;2023-07-31T14:07:14;22.50;99.90
21698;DHT22;11010;49.548;11.926;2023-07-31T14:09:41;22.60;99.90
21698;DHT22;11010;49.548;11.926;2023-07-31T14:12:08;22.60;99.90
21698;DHT22;11010;49.548;11.926;2023-07-31T14:14:35;22.60;99.90
21698;DHT22;11010;49.548;11.926;2023-07-31T14:17:02;22.70;99.90
21698;DHT22;11010;49.548;11.926;2023-07-31T14:19:29;23.10;99.90
21698;DHT22;11010;49.548;11.926;2023-07-31T14:21:58;23.10;99.90
21698;DHT22;11010;49.548;11.926;2023-07-31T14:24:37;22.70;99.90
21698;DHT22;11010;49.548;11.926;2023-07-31T14:27:04;22.90;99.90
21698;DHT22;11010;49.548;11.926;2023-07-31T14:29:32;22.70;99.90
21698;DHT22;11010;49.548;11.926;2023-07-31T14:31:59;22.60;99.90
21698;DHT22;11010;49.548;11.926;2023-07-31T14:34:27;22.90;99.90
21698;DHT22;11010;49.548;11.926;2023-07-31T14:36:54;22.80;99.90
21698;DHT22;11010;49.548;11.926;2023-07-31T14:39:21;22.80;99.90
21698;DHT22;11010;49.548;11.926;2023-07-31T14:41:48;23.40;99.90
21698;DHT22;11010;49.548;11.926;2023-07-31T14:44:15;23.80;99.90
21698;DHT22;11010;49.548;11.926;2023-07-31T14:46:42;23.50;99.90
21698;DHT22;11010;49.548;11.926;2023-07-31T14:49:10;23.40;99.90
21698;DHT22;11010;49.548;11.926;2023-07-31T14:51:37;23.20;99.90
21698;DHT22;11010;49.548;11.926;2023-07-31T14:54:04;22.90;99.90
21698;DHT22;11010;49.548;11.926;2023-07-31T14:56:31;22.60;99.90
21698;DHT22;11010;49.548;11.926;2023-07-31T14:58:58;22.50;99.90
21698;DHT22;11010;49.548;11.926;2023-07-31T15:01:25;22.50;99.90
21698;DHT22;11010;49.548;11.926;2023-07-31T15:03:52;22.20;99.90
21698;DHT22;11010;49.548;11.926;2023-07-31T15:06:19;22.20;99.90
21698;DHT22;11010;49.548;11.926;2023-07-31T15:08:46;22.10;99.90
21698;DHT22;11010;49.548;11.926;2023-07-31T15:11:13;22.10;99.90
21698;DHT22;11010;49.548;11.926;2023-07-31T15:13:43;22.10;99.90
21698;DHT22;11010;49.548;11.926;2023-07-31T15:16:10;22.20;99.90
21698;DHT22;11010;49.548;11.926;2023-07-31T15:18:37;22.20;99.90
21698;DHT22;11010;49.548;11.926;2023-07-31T15:21:04;22.30;99.90
21698;DHT22;11010;49.548;11.926;2023-07-31T15:23:33;22.20;99.90
21698;DHT22;11010;49.548;11.926;2023-07-31T15:26:00;22.30;99.90
21698;DHT22;11010;49.548;11.926;2023-07-31T15:28:28;22.20;99.90
21698;DHT22;11010;49.548;11.926;2023-07-31T15:30:55;22.10;99.90